Time;durP1;ratioP1;P1;durP2;ratioP2;P2;SDS_P1;SDS_P2;PMS_P1;PMS_P2;Temp;Humidity;BMP_temperature;BMP_pressure;BME280_temperature;BME280_humidity;BME280_pressure;Samples;Min_cycle;Max_cycle;Signal;HPM_P1;HPM_P2
2021/07/19 00:00:19;;;;;;;23.50;17.95;;;;;;;23.23;60.43;99111.53;4392004;32;20120;-95
2021/07/19 00:02:45;;;;;;;23.80;18.30;;;;;;;23.27;60.42;99115.56;4391872;32;20189;-96
2021/07/19 00:05:12;;;;;;;26.23;19.55;;;;;;;23.35;60.43;99113.00;4379576;32;20130;-94
2021/07/19 00:07:37;;;;;;;29.23;20.33;;;;;;;23.50;60.44;99118.69;4378431;32;20098;-95
2021/07/19 00:10:04;;;;;;;27.00;18.25;;;;;;;23.31;60.43;99119.59;4379354;32;20121;-95
2021/07/19 00:12:30;;;;;;;27.87;19.80;;;;;;;23.40;60.43;99120.53;4379116;32;20754;-95
2021/07/19 00:14:58;;;;;;;26.62;18.55;;;;;;;23.29;60.43;99121.56;4379469;32;20126;-95
2021/07/19 00:17:23;;;;;;;25.70;19.00;;;;;;;23.41;60.43;99123.03;4379165;32;20132;-95
2021/07/19 00:19:50;;;;;;;27.55;19.98;;;;;;;23.44;60.44;99127.25;4379304;32;20110;-95
2021/07/19 00:22:19;;;;;;;27.55;20.27;;;;;;;23.49;60.44;99127.66;4379178;32;20110;-95
2021/07/19 00:24:47;;;;;;;32.25;20.05;;;;;;;23.65;60.44;99135.84;4379050;32;20477;-95
2021/07/19 00:27:16;;;;;;;26.95;19.62;;;;;;;23.53;60.44;99137.81;4379245;32;20156;-95
2021/07/19 00:29:41;;;;;;;26.48;19.95;;;;;;;23.51;60.43;99137.16;4379806;32;20105;-95
2021/07/19 00:32:07;;;;;;;25.05;20.02;;;;;;;23.53;60.45;99137.00;4380182;32;20114;-95
2021/07/19 00:34:32;;;;;;;29.30;19.50;;;;;;;23.48;60.44;99118.84;4379706;32;20447;-94
2021/07/19 00:36:58;;;;;;;28.95;20.08;;;;;;;23.46;60.44;99128.78;4379126;32;20384;-95
2021/07/19 00:39:24;;;;;;;25.65;19.50;;;;;;;23.44;60.45;99120.12;4378992;32;20078;-96
2021/07/19 00:41:52;;;;;;;26.02;20.10;;;;;;;23.51;60.43;99118.53;4391685;32;20154;-94
2021/07/19 00:44:21;;;;;;;24.35;19.87;;;;;;;23.43;60.43;99126.41;4379110;32;20136;-95
2021/07/19 00:46:53;;;;;;;25.00;19.77;;;;;;;23.50;60.44;99111.56;4379222;32;20094;-94
2021/07/19 00:49:22;;;;;;;26.62;19.70;;;;;;;23.41;60.43;99114.25;4379531;32;20091;-95
2021/07/19 00:51:50;;;;;;;30.80;20.25;;;;;;;23.26;60.42;99108.59;4381241;32;20066;-95
2021/07/19 00:54:19;;;;;;;28.12;19.75;;;;;;;23.16;60.42;99097.97;4386191;32;20098;-95
2021/07/19 00:56:44;;;;;;;26.20;19.30;;;;;;;23.22;60.43;99097.41;4386264;32;20106;-95
2021/07/19 00:59:10;;;;;;;29.65;19.87;;;;;;;23.37;60.44;99107.56;4384004;32;20114;-95
2021/07/19 01:01:37;;;;;;;26.42;19.23;;;;;;;23.24;60.43;99110.56;4382531;32;20173;-95
2021/07/19 01:04:03;;;;;;;27.62;20.17;;;;;;;23.13;60.43;99110.72;4379613;32;20136;-95
2021/07/19 01:06:29;;;;;;;28.60;20.12;;;;;;;23.21;60.43;99116.16;4378967;32;20483;-95
2021/07/19 01:08:57;;;;;;;30.00;20.40;;;;;;;23.22;60.43;99118.66;4378684;32;20083;-95
2021/07/19 01:11:23;;;;;;;24.83;20.30;;;;;;;23.25;60.42;99112.22;4378883;32;20113;-94
2021/07/19 01:13:49;;;;;;;26.58;20.52;;;;;;;23.55;60.44;99114.59;4378830;32;20160;-95
2021/07/19 01:16:18;;;;;;;29.35;20.98;;;;;;;23.27;60.42;99108.44;4378861;32;20116;-94
2021/07/19 01:18:43;;;;;;;29.17;21.33;;;;;;;23.45;60.44;99116.47;4381368;32;20102;-95
2021/07/19 01:21:44;;;;;;;26.60;19.30;;;;;;;23.22;60.42;99108.03;4387709;32;20120;-95
2021/07/19 01:24:30;;;;;;;26.92;20.00;;;;;;;23.26;60.43;99108.59;4393364;32;20150;-94
2021/07/19 01:27:23;;;;;;;25.08;20.48;;;;;;;23.25;60.43;99099.78;4389802;32;20171;-95
2021/07/19 01:29:48;;;;;;;26.85;18.60;;;;;;;23.30;60.43;99106.47;4391366;32;20695;-94
2021/07/19 01:32:13;;;;;;;27.05;19.50;;;;;;;23.32;60.43;99113.31;4378552;32;20155;-95
2021/07/19 01:34:41;;;;;;;25.90;19.27;;;;;;;23.48;60.44;99110.03;4378446;32;20150;-94
2021/07/19 01:37:07;;;;;;;29.83;20.55;;;;;;;23.40;60.44;99102.78;4378347;32;20125;-95
2021/07/19 01:39:32;;;;;;;26.48;19.90;;;;;;;23.27;60.42;99110.25;4378033;32;20507;-94
2021/07/19 01:41:58;;;;;;;27.98;20.12;;;;;;;23.40;60.43;99105.44;4378278;32;20110;-94
2021/07/19 01:44:24;;;;;;;28.42;19.33;;;;;;;23.51;60.43;99110.56;4378436;32;20118;-96
2021/07/19 01:46:54;;;;;;;25.70;20.05;;;;;;;23.40;60.43;99116.06;4378464;32;20125;-95
2021/07/19 01:49:27;;;;;;;25.65;19.55;;;;;;;23.36;60.44;99106.72;4378292;32;20169;-95
2021/07/19 01:51:55;;;;;;;28.87;19.15;;;;;;;23.50;60.44;99106.25;4378258;32;20137;-96
2021/07/19 01:54:31;;;;;;;27.50;20.25;;;;;;;23.48;60.44;99108.22;4378267;32;20688;-96
2021/07/19 01:56:57;;;;;;;28.85;19.40;;;;;;;23.37;60.44;99102.25;4378622;32;20545;-95
2021/07/19 01:59:25;;;;;;;26.80;18.75;;;;;;;23.27;60.42;99089.00;4378208;32;20459;-94
2021/07/19 02:01:51;;;;;;;27.45;19.52;;;;;;;23.20;60.43;99099.38;4391106;32;20142;-94
2021/07/19 02:04:16;;;;;;;31.17;19.80;;;;;;;23.15;60.42;99106.09;4378244;32;20146;-95
2021/07/19 02:06:42;;;;;;;28.48;18.75;;;;;;;23.18;60.42;99103.97;4378393;32;20138;-95
2021/07/19 02:09:11;;;;;;;23.00;17.87;;;;;;;23.15;60.43;99108.75;4378399;32;20474;-95
2021/07/19 02:11:36;;;;;;;20.77;14.70;;;;;;;23.19;60.42;99103.03;4375461;32;20765;-95
2021/07/19 02:14:10;;;;;;;20.17;15.48;;;;;;;23.40;60.43;99108.09;4375821;32;20133;-96
2021/07/19 02:16:41;;;;;;;18.20;14.45;;;;;;;23.55;60.44;99103.16;4375845;32;20107;-95
2021/07/19 02:19:07;;;;;;;16.65;13.00;;;;;;;23.70;60.45;99101.72;4375618;32;20710;-94
2021/07/19 02:21:32;;;;;;;16.33;12.63;;;;;;;23.79;60.45;99106.12;4387709;32;20144;-95
2021/07/19 02:23:58;;;;;;;17.73;13.10;;;;;;;23.99;60.47;99096.22;4375391;32;20111;-96
2021/07/19 02:26:37;;;;;;;;;;;;;;;;;;;;;
2021/07/19 02:29:03;;;;;;;17.25;13.20;;;;;;;24.21;60.47;99089.62;4374640;32;36357;-94
2021/07/19 02:31:28;;;;;;;21.37;14.90;;;;;;;24.28;60.48;99092.50;4376946;32;20172;-95
2021/07/19 02:33:54;;;;;;;19.87;15.80;;;;;;;24.18;60.47;99096.09;4377424;32;20106;-95
2021/07/19 02:36:29;;;;;;;22.73;16.70;;;;;;;24.11;60.47;99092.34;4377354;32;20217;-95
2021/07/19 02:38:57;;;;;;;20.85;15.95;;;;;;;24.14;60.48;99099.19;4378171;32;20109;-95
2021/07/19 02:41:26;;;;;;;22.30;14.75;;;;;;;23.99;60.46;99109.50;4377231;32;20188;-95
2021/07/19 02:43:55;;;;;;;20.23;14.98;;;;;;;23.99;60.47;99109.50;4377024;32;20107;-94
2021/07/19 02:46:23;;;;;;;18.08;14.70;;;;;;;24.24;60.48;99115.06;4378181;32;20094;-94
2021/07/19 02:48:58;;;;;;;21.35;13.95;;;;;;;24.18;60.48;99121.84;4377516;32;20098;-96
2021/07/19 02:51:30;;;;;;;19.90;14.05;;;;;;;24.04;60.46;99140.97;4377425;32;20111;-94
2021/07/19 02:53:59;;;;;;;19.27;14.32;;;;;;;24.04;60.46;99147.09;4377720;32;20114;-94
2021/07/19 02:56:24;;;;;;;14.40;12.55;;;;;;;24.28;60.48;99164.31;4377488;32;20156;-94
2021/07/19 02:58:53;;;;;;;16.40;10.75;;;;;;;24.41;60.48;99159.50;4377342;32;20159;-95
2021/07/19 03:01:20;;;;;;;7.03;5.80;;;;;;;24.39;60.49;99167.63;4389926;32;20111;-94
2021/07/19 03:03:46;;;;;;;8.85;5.47;;;;;;;24.33;60.48;99175.38;4377353;32;20510;-95
2021/07/19 03:09:06;;;;;;;9.13;4.93;;;;;;;24.25;60.48;99204.50;4374621;32;20095;-94
2021/07/19 03:11:49;;;;;;;10.00;6.45;;;;;;;24.15;60.48;99180.66;4378563;32;20137;-95
2021/07/19 03:14:54;;;;;;;;;;;;;;;;;;;;;
2021/07/19 03:17:20;;;;;;;17.05;11.02;;;;;;;24.01;60.47;99158.03;4376394;32;35689;-95
2021/07/19 03:19:53;;;;;;;15.20;11.55;;;;;;;23.91;60.46;99169.72;4378408;32;20120;-94
2021/07/19 03:22:19;;;;;;;19.10;12.27;;;;;;;23.76;60.46;99193.28;4377600;32;20153;-94
2021/07/19 03:27:40;;;;;;;26.98;13.23;;;;;;;23.83;60.46;99216.47;4443834;27;20142;-92
2021/07/19 03:30:09;;;;;;;23.23;14.18;;;;;;;23.60;60.45;99219.62;4382178;32;20112;-93
2021/07/19 03:32:37;;;;;;;19.92;12.52;;;;;;;23.58;60.44;99209.97;4379528;32;20157;-93
2021/07/19 03:35:03;;;;;;;19.90;12.18;;;;;;;23.51;60.43;99200.91;4392013;32;20497;-93
2021/07/19 03:37:29;;;;;;;16.87;11.45;;;;;;;23.49;60.44;99202.03;4379420;32;20139;-93
2021/07/19 03:39:54;;;;;;;15.48;11.57;;;;;;;23.46;60.44;99205.81;4391496;32;20102;-92
2021/07/19 03:42:20;;;;;;;16.42;11.95;;;;;;;23.64;60.45;99205.06;4390751;32;20145;-94
2021/07/19 03:44:45;;;;;;;17.40;13.30;;;;;;;23.39;60.43;99209.16;4391908;32;20472;-94
2021/07/19 03:47:28;;;;;;;20.65;14.77;;;;;;;23.22;60.43;99219.56;4392034;32;20141;-94
2021/07/19 03:49:56;;;;;;;23.00;14.75;;;;;;;22.76;60.40;99235.34;4379517;32;20488;-94
2021/07/19 03:52:22;;;;;;;30.52;17.17;;;;;;;22.61;60.40;99245.50;4366009;32;20128;-90
2021/07/19 03:54:48;;;;;;;26.98;17.80;;;;;;;22.40;60.38;99253.56;4366684;32;20110;-93
2021/07/19 03:57:15;;;;;;;25.50;17.00;;;;;;;22.50;60.38;99256.25;4380691;32;20377;-93
2021/07/19 03:59:40;;;;;;;21.77;15.02;;;;;;;22.70;60.40;99236.72;4367997;32;20078;-92
2021/07/19 04:02:11;;;;;;;22.40;16.48;;;;;;;22.61;60.40;99253.47;4392285;32;20128;-93
2021/07/19 04:04:54;;;;;;;21.27;14.15;;;;;;;22.67;60.40;99253.75;4379319;32;20807;-93
2021/07/19 04:07:19;;;;;;;19.15;12.95;;;;;;;22.85;60.41;99264.56;4380407;32;20099;-91
2021/07/19 04:09:45;;;;;;;19.05;12.85;;;;;;;22.85;60.41;99269.03;4391389;32;20098;-90
2021/07/19 04:12:13;;;;;;;15.85;11.50;;;;;;;22.87;60.41;99269.72;4391365;32;20161;-91
2021/07/19 04:14:39;;;;;;;12.98;9.95;;;;;;;22.71;60.40;99275.53;4379152;32;20125;-92
2021/07/19 04:17:05;;;;;;;16.37;11.02;;;;;;;22.85;60.40;99269.03;4381546;32;20097;-92
2021/07/19 04:19:31;;;;;;;16.08;11.73;;;;;;;22.80;60.40;99260.63;4400529;32;20102;-92
2021/07/19 04:21:56;;;;;;;13.90;11.55;;;;;;;22.89;60.41;99254.50;4399494;32;20099;-93
2021/07/19 04:24:22;;;;;;;17.62;12.48;;;;;;;22.73;60.41;99241.75;4396921;32;20149;-93
2021/07/19 04:26:47;;;;;;;16.02;11.80;;;;;;;22.68;60.40;99242.16;4399779;32;20098;-93
2021/07/19 04:29:13;;;;;;;15.45;11.98;;;;;;;22.59;60.40;99243.00;4393468;32;20153;-92
2021/07/19 04:31:38;;;;;;;17.67;12.48;;;;;;;22.56;60.39;99253.03;4392650;32;20520;-92
2021/07/19 04:34:04;;;;;;;17.20;13.02;;;;;;;22.51;60.39;99264.06;4391665;32;20593;-92
2021/07/19 04:36:32;;;;;;;20.65;13.25;;;;;;;22.46;60.39;99252.16;4392388;32;20160;-93
2021/07/19 04:38:57;;;;;;;23.00;13.45;;;;;;;22.43;60.39;99225.94;4378984;32;20168;-93
2021/07/19 04:41:23;;;;;;;26.70;16.00;;;;;;;22.57;60.38;99233.50;4391649;32;20115;-95
2021/07/19 04:43:48;;;;;;;19.80;14.63;;;;;;;22.48;60.39;99242.28;4390832;32;20126;-92
2021/07/19 04:46:16;;;;;;;22.50;14.43;;;;;;;22.58;60.40;99241.31;4390821;32;20452;-93
2021/07/19 04:48:42;;;;;;;20.92;14.57;;;;;;;22.73;60.40;99244.41;4366039;32;20106;-92
2021/07/19 04:51:07;;;;;;;24.12;14.40;;;;;;;22.74;60.40;99234.66;4390747;32;20123;-93
2021/07/19 04:53:33;;;;;;;19.12;14.80;;;;;;;22.71;60.40;99243.69;4390147;32;20185;-92
2021/07/19 04:55:59;;;;;;;21.37;14.45;;;;;;;22.80;60.40;99248.19;4390688;32;20117;-92
2021/07/19 04:58:25;;;;;;;23.15;14.75;;;;;;;22.65;60.40;99245.09;4390590;32;20109;-92
2021/07/19 05:00:55;;;;;;;24.35;15.40;;;;;;;22.86;60.40;99265.41;4365890;32;20107;-92
2021/07/19 05:03:23;;;;;;;23.40;15.50;;;;;;;22.82;60.41;99275.44;4378331;32;20102;-92
2021/07/19 05:05:48;;;;;;;17.85;14.63;;;;;;;22.76;60.40;99275.16;4378282;32;20126;-93
2021/07/19 05:08:17;;;;;;;18.10;14.57;;;;;;;22.83;60.41;99282.44;4390793;32;20231;-93
2021/07/19 05:10:42;;;;;;;21.35;13.85;;;;;;;23.01;60.41;99284.41;4378521;32;20464;-92
2021/07/19 05:13:10;;;;;;;23.73;14.20;;;;;;;23.12;60.43;99269.16;4391116;32;20136;-93
2021/07/19 05:15:35;;;;;;;23.38;14.98;;;;;;;23.04;60.41;99273.50;4378449;32;20082;-93
2021/07/19 05:18:01;;;;;;;20.17;15.18;;;;;;;22.93;60.41;99259.38;4390866;32;20159;-92
2021/07/19 05:20:28;;;;;;;25.55;15.38;;;;;;;22.75;60.40;99262.84;4390730;32;20130;-92
2021/07/19 05:22:54;;;;;;;20.52;14.25;;;;;;;22.74;60.40;99264.66;4390588;32;21165;-93
2021/07/19 05:25:24;;;;;;;20.75;14.45;;;;;;;22.91;60.41;99276.44;4378305;32;20212;-94
2021/07/19 05:27:58;;;;;;;;;;;;;;;22.86;60.40;99284.81;4378722;32;20564;-94
2021/07/19 05:30:27;;;;;;;19.00;14.82;;;;;;;22.86;60.40;99282.16;4392297;32;20336;-94
2021/07/19 05:32:54;;;;;;;20.80;15.32;;;;;;;22.73;60.39;99283.38;4378394;32;20252;-93
2021/07/19 05:35:20;;;;;;;22.37;15.27;;;;;;;22.83;60.41;99287.75;4391007;32;20098;-94
2021/07/19 05:37:46;;;;;;;23.15;15.30;;;;;;;23.03;60.41;99296.56;4379028;32;20121;-93
2021/07/19 05:40:12;;;;;;;22.50;15.80;;;;;;;22.92;60.41;99294.03;4378425;32;20132;-94
2021/07/19 05:42:39;;;;;;;22.98;16.05;;;;;;;22.96;60.40;99288.31;4365751;32;20699;-94
2021/07/19 05:45:05;;;;;;;23.38;15.63;;;;;;;22.98;60.41;99280.22;4390760;32;20120;-94
2021/07/19 05:47:31;;;;;;;20.33;14.45;;;;;;;23.06;60.42;99298.09;4378144;32;20103;-93
2021/07/19 05:49:56;;;;;;;22.15;16.05;;;;;;;23.01;60.41;99314.44;4390012;32;20173;-94
2021/07/19 05:52:23;;;;;;;23.00;16.45;;;;;;;22.92;60.41;99326.72;4390003;32;20106;-94
2021/07/19 05:54:48;;;;;;;22.30;16.85;;;;;;;22.82;60.41;99327.69;4390116;32;20814;-95
2021/07/19 05:57:14;;;;;;;25.05;16.52;;;;;;;22.96;60.41;99327.31;4390784;32;20161;-95
2021/07/19 05:59:39;;;;;;;28.65;17.35;;;;;;;22.98;60.42;99333.31;4390227;32;20166;-94
2021/07/19 06:02:05;;;;;;;33.38;18.17;;;;;;;22.99;60.41;99342.94;4390179;32;20122;-94
2021/07/19 06:04:30;;;;;;;24.83;17.20;;;;;;;22.92;60.41;99344.44;4390173;32;20126;-94
2021/07/19 06:06:56;;;;;;;31.48;18.35;;;;;;;22.94;60.40;99351.31;4392316;32;20151;-94
2021/07/19 06:09:24;;;;;;;24.08;16.87;;;;;;;22.89;60.41;99332.31;4392455;32;20180;-95
2021/07/19 06:11:52;;;;;;;26.48;17.25;;;;;;;22.90;60.41;99323.34;4392538;32;20115;-95
2021/07/19 06:14:36;;;;;;;31.02;18.75;;;;;;;22.95;60.40;99326.47;4380142;32;20066;-95
2021/07/19 06:17:12;;;;;;;;;;;;;;;;;;;;;
2021/07/19 06:22:44;;;;;;;22.48;16.08;;;;;;;23.23;60.43;99342.56;4375181;32;20106;-95
2021/07/19 06:25:11;;;;;;;21.10;17.23;;;;;;;23.26;60.42;99348.41;4381015;32;20097;-95
2021/07/19 06:27:36;;;;;;;23.52;16.90;;;;;;;23.30;60.43;99348.13;4378043;32;20752;-94
2021/07/19 06:30:04;;;;;;;24.77;17.65;;;;;;;23.23;60.43;99353.16;4390095;32;20122;-95
2021/07/19 06:32:30;;;;;;;23.52;16.75;;;;;;;23.29;60.43;99344.63;4389929;32;20149;-95
2021/07/19 06:34:55;;;;;;;24.50;17.70;;;;;;;23.18;60.42;99353.56;4389731;32;20095;-95
2021/07/19 06:37:21;;;;;;;23.10;17.70;;;;;;;23.12;60.41;99371.88;4389913;32;20518;-95
2021/07/19 06:39:48;;;;;;;25.10;17.62;;;;;;;23.19;60.41;99381.81;4390249;32;20134;-94
2021/07/19 06:42:14;;;;;;;24.67;17.65;;;;;;;23.09;60.42;99372.16;4390662;32;20811;-94
2021/07/19 06:44:42;;;;;;;25.30;17.30;;;;;;;23.10;60.41;99369.34;4391305;32;20145;-92
2021/07/19 06:47:09;;;;;;;26.40;17.50;;;;;;;23.21;60.43;99358.63;4391544;32;20131;-94
2021/07/19 06:49:37;;;;;;;24.98;16.67;;;;;;;22.96;60.40;99361.81;4390904;32;20633;-94
2021/07/19 06:52:05;;;;;;;23.83;18.12;;;;;;;23.16;60.42;99363.47;4390876;32;20510;-94
2021/07/19 06:54:31;;;;;;;23.92;18.05;;;;;;;23.08;60.41;99357.19;4390308;32;20103;-95
2021/07/19 06:56:58;;;;;;;26.30;18.80;;;;;;;23.19;60.42;99349.12;4390460;32;20102;-95
2021/07/19 06:59:24;;;;;;;24.08;17.67;;;;;;;23.22;60.42;99347.03;4390355;32;20107;-93
2021/07/19 07:01:49;;;;;;;28.48;19.15;;;;;;;23.35;60.42;99352.03;4389912;32;20145;-95
2021/07/19 07:04:44;;;;;;;33.13;19.37;;;;;;;23.16;60.42;99338.75;4390537;32;20161;-93
2021/07/19 07:07:19;;;;;;;31.42;20.10;;;;;;;22.94;60.40;99294.72;4390327;32;20691;-93
2021/07/19 07:09:55;;;;;;;;;;;;;;;;;;;;;
2021/07/19 07:12:21;;;;;;;32.97;21.52;;;;;;;22.46;60.38;99278.69;4388324;32;36130;-94
2021/07/19 07:14:50;;;;;;;35.85;22.73;;;;;;;22.23;60.37;99281.56;4389968;32;20103;-95
2021/07/19 07:17:15;;;;;;;30.15;21.67;;;;;;;22.20;60.37;99299.53;4389744;32;20102;-95
2021/07/19 07:19:56;;;;;;;;;;;;;;;;;;;;;
2021/07/19 07:22:43;;;;;;;32.00;22.75;;;;;;;22.20;60.37;99276.53;4388272;32;36561;-95
2021/07/19 07:25:11;;;;;;;30.92;22.33;;;;;;;21.94;60.35;99277.94;4389651;32;20128;-93
2021/07/19 07:27:37;;;;;;;36.95;24.63;;;;;;;21.85;60.35;99276.06;4390292;32;20089;-95
2021/07/19 07:30:10;;;;;;;31.80;23.20;;;;;;;21.82;60.35;99271.03;4390859;32;20114;-94
2021/07/19 07:32:38;;;;;;;31.02;22.85;;;;;;;21.90;60.35;99279.16;4390303;32;20190;-91
2021/07/19 07:35:04;;;;;;;31.40;22.60;;;;;;;21.84;60.35;99275.25;4390208;32;20067;-94
2021/07/19 07:37:33;;;;;;;30.42;23.50;;;;;;;21.86;60.35;99283.06;4389492;32;20115;-92
2021/07/19 07:39:59;;;;;;;29.95;22.62;;;;;;;21.90;60.36;99281.81;4389400;32;20165;-95
2021/07/19 07:42:25;;;;;;;32.17;21.52;;;;;;;21.90;60.35;99285.31;4390056;32;20111;-93
2021/07/19 07:44:50;;;;;;;28.92;21.10;;;;;;;21.88;60.36;99294.34;4391943;32;20148;-92
2021/07/19 07:47:16;;;;;;;26.40;20.55;;;;;;;22.05;60.36;99301.75;4391197;32;20130;-92
2021/07/19 07:49:41;;;;;;;28.62;21.50;;;;;;;22.29;60.38;99304.06;4390962;32;20126;-93
2021/07/19 07:52:08;;;;;;;27.15;19.98;;;;;;;22.33;60.37;99294.88;4401202;32;20099;-93
2021/07/19 07:54:33;;;;;;;29.27;20.58;;;;;;;22.62;60.39;99298.44;4402318;32;20076;-93
2021/07/19 07:56:59;;;;;;;39.22;24.87;;;;;;;23.06;60.42;99306.06;4396077;32;20106;-93
2021/07/19 07:59:24;;;;;;;28.12;20.98;;;;;;;23.28;60.42;99311.09;4390508;32;20154;-92
2021/07/19 08:01:50;;;;;;;25.98;20.42;;;;;;;23.69;60.45;99312.63;4389838;32;20106;-92
2021/07/19 08:04:15;;;;;;;21.73;18.70;;;;;;;23.85;60.45;99320.81;4389093;32;20099;-92
2021/07/19 08:06:40;;;;;;;28.73;19.40;;;;;;;24.23;60.47;99326.16;4389047;32;20163;-93
2021/07/19 08:09:06;;;;;;;28.70;19.05;;;;;;;24.71;60.50;99329.47;4388989;32;20114;-93
2021/07/19 08:11:31;;;;;;;24.58;17.05;;;;;;;25.15;60.51;99329.63;4389148;32;20558;-93
2021/07/19 08:13:57;;;;;;;19.83;15.50;;;;;;;25.57;60.54;99335.16;4389121;32;20110;-92
2021/07/19 08:16:23;;;;;;;20.10;14.43;;;;;;;25.90;60.55;99336.22;4389016;32;20099;-93
2021/07/19 08:18:48;;;;;;;22.08;15.18;;;;;;;26.20;60.57;99336.72;4388963;32;20165;-93
2021/07/19 08:21:14;;;;;;;18.20;13.85;;;;;;;26.41;60.58;99323.88;4389027;32;20432;-93
2021/07/19 08:23:39;;;;;;;21.30;14.18;;;;;;;26.39;60.58;99325.03;4388985;32;20400;-93
2021/07/19 08:26:05;;;;;;;19.20;14.35;;;;;;;26.49;60.57;99328.38;4389125;32;20106;-93
2021/07/19 08:28:31;;;;;;;16.00;14.25;;;;;;;26.32;60.57;99316.78;4387958;32;20214;-94
2021/07/19 08:30:56;;;;;;;15.50;12.40;;;;;;;26.36;60.58;99315.50;4388845;32;20140;-95
2021/07/19 08:33:22;;;;;;;16.10;13.77;;;;;;;26.38;60.58;99315.34;4388887;32;20099;-94
2021/07/19 08:35:49;;;;;;;13.50;11.80;;;;;;;26.40;60.57;99322.19;4389243;32;20110;-94
2021/07/19 08:38:15;;;;;;;17.55;12.50;;;;;;;26.54;60.58;99326.09;4389611;32;20110;-94
2021/07/19 08:40:43;;;;;;;15.00;12.52;;;;;;;26.72;60.59;99324.13;4389663;32;20145;-94
2021/07/19 08:43:11;;;;;;;17.42;12.00;;;;;;;26.85;60.60;99323.69;4388839;32;20090;-94
2021/07/19 08:45:36;;;;;;;18.12;12.60;;;;;;;26.83;60.61;99318.50;4389353;32;20482;-94
2021/07/19 08:48:05;;;;;;;14.38;11.35;;;;;;;26.75;60.60;99325.66;4389859;32;20126;-94
2021/07/19 08:50:30;;;;;;;13.70;11.35;;;;;;;26.60;60.59;99331.63;4389922;32;20870;-94
2021/07/19 08:52:56;;;;;;;18.08;13.90;;;;;;;26.55;60.58;99327.78;4389444;32;20098;-94
2021/07/19 08:55:24;;;;;;;17.23;12.70;;;;;;;26.45;60.58;99335.88;4389402;32;20110;-94
2021/07/19 08:58:10;;;;;;;;;;;;;;;;;;;;;
2021/07/19 09:00:36;;;;;;;16.37;14.32;;;;;;;26.33;60.57;99337.16;4387662;32;36422;-95
2021/07/19 09:03:11;;;;;;;16.30;13.57;;;;;;;26.30;60.58;99337.47;4389877;32;20121;-96
2021/07/19 09:05:47;;;;;;;18.05;14.20;;;;;;;26.26;60.57;99333.44;4389498;32;20102;-96
2021/07/19 09:08:20;;;;;;;16.67;13.90;;;;;;;26.23;60.57;99320.41;4390233;32;20106;-95
2021/07/19 09:10:45;;;;;;;20.88;15.05;;;;;;;26.47;60.58;99325.03;4390800;32;20848;-96
2021/07/19 09:13:23;;;;;;;19.15;14.95;;;;;;;26.62;60.59;99326.94;4389575;32;20133;-96
2021/07/19 09:16:20;;;;;;;18.23;13.82;;;;;;;26.70;60.60;99326.12;4390983;32;20093;-96
2021/07/19 09:18:46;;;;;;;17.73;14.43;;;;;;;26.89;60.61;99317.84;4389947;32;20562;-96
2021/07/19 09:21:31;;;;;;;16.30;13.68;;;;;;;26.73;60.59;99323.13;4389634;32;20103;-96
2021/07/19 09:24:18;;;;;;;16.60;13.80;;;;;;;26.76;60.60;99319.34;4389834;32;20098;-95
2021/07/19 09:26:44;;;;;;;17.67;12.75;;;;;;;26.77;60.60;99313.00;4389769;32;20127;-96
2021/07/19 09:29:11;;;;;;;17.42;14.87;;;;;;;27.11;60.61;99312.91;4389852;32;20804;-96
2021/07/19 09:31:50;;;;;;;17.48;13.02;;;;;;;27.24;60.62;99315.09;4389738;32;20181;-96
2021/07/19 09:34:32;;;;;;;15.02;13.38;;;;;;;27.55;60.64;99316.09;4391654;32;20137;-96
2021/07/19 09:37:13;;;;;;;20.48;13.18;;;;;;;27.71;60.65;99316.13;4394890;32;20117;-96
2021/07/19 09:39:56;;;;;;;17.77;12.50;;;;;;;27.87;60.65;99309.88;4397620;32;20079;-96
2021/07/19 09:42:52;;;;;;;;;;;;;;;;;;;;;
2021/07/19 09:45:50;;;;;;;16.58;11.82;;;;;;;28.42;60.69;99293.88;4398153;32;35758;-96
2021/07/19 09:54:36;;;;;;;17.98;13.48;;;;;;;28.99;60.71;99298.91;4572643;27;20157;-96
2021/07/19 09:57:36;;;;;;;15.43;13.80;;;;;;;29.08;60.71;99301.53;4418760;32;20058;-96
2021/07/19 10:00:42;;;;;;;15.02;13.32;;;;;;;29.17;60.72;99297.78;4409252;32;20109;-96
2021/07/19 10:03:17;;;;;;;14.85;12.35;;;;;;;29.23;60.72;99297.06;4417321;32;20098;-96
2021/07/19 10:11:49;;;;;;;13.62;10.80;;;;;;;29.68;60.75;99298.06;4745733;27;20079;-96
2021/07/19 10:14:50;;;;;;;13.82;10.65;;;;;;;29.66;60.75;99298.25;4390018;32;20114;-96
2021/07/19 10:22:45;;;;;;;10.88;9.77;;;;;;;29.90;60.76;99281.06;5118759;27;20044;-96
2021/07/19 11:22:40;;;;;;;15.73;11.65;;;;;;;26.56;60.60;99338.28;4369659;32;20071;-96
2021/07/19 11:25:44;;;;;;;17.27;12.68;;;;;;;25.74;60.56;99325.44;4363739;32;20078;-94
2021/07/19 11:28:29;;;;;;;19.85;12.75;;;;;;;24.86;60.52;99328.97;4339041;32;20224;-93
2021/07/19 11:31:12;;;;;;;17.73;11.90;;;;;;;24.78;60.52;99335.84;4352729;32;20102;-93
2021/07/19 11:33:41;;;;;;;18.15;11.38;;;;;;;24.42;60.50;99342.09;4351798;32;20123;-94
2021/07/19 11:36:26;;;;;;;15.33;12.63;;;;;;;24.55;60.50;99344.38;4350425;32;20494;-94
2021/07/19 11:39:15;;;;;;;20.15;13.38;;;;;;;24.57;60.50;99329.94;4350252;32;20091;-96
2021/07/19 11:42:00;;;;;;;15.32;12.43;;;;;;;24.59;60.50;99338.63;4327149;32;20091;-96
2021/07/19 11:44:27;;;;;;;20.27;13.65;;;;;;;24.53;60.51;99323.25;4351011;32;20107;-95
2021/07/19 11:46:53;;;;;;;19.65;13.45;;;;;;;24.52;60.50;99318.06;4337593;32;20171;-92
2021/07/19 11:49:21;;;;;;;17.23;12.63;;;;;;;24.83;60.53;99319.41;4349354;32;20110;-94
2021/07/19 11:51:47;;;;;;;17.10;12.93;;;;;;;24.88;60.52;99321.66;4351726;32;20102;-94
2021/07/19 11:54:16;;;;;;;16.67;12.75;;;;;;;24.79;60.51;99316.22;4340118;32;20115;-96
2021/07/19 11:56:51;;;;;;;17.98;12.65;;;;;;;24.74;60.50;99321.16;4342211;32;20103;-93
2021/07/19 11:59:20;;;;;;;14.40;12.23;;;;;;;24.56;60.50;99316.78;4355902;32;20160;-93
2021/07/19 12:01:45;;;;;;;16.23;12.97;;;;;;;24.68;60.50;99315.63;4349231;32;20100;-94
2021/07/19 12:04:11;;;;;;;17.27;12.75;;;;;;;24.75;60.50;99312.19;4336311;32;20112;-94
2021/07/19 12:06:36;;;;;;;13.85;11.85;;;;;;;24.98;60.52;99312.59;4337456;32;20121;-94
2021/07/19 12:09:11;;;;;;;17.52;13.93;;;;;;;25.03;60.52;99304.19;4337162;32;20111;-94
2021/07/19 12:11:36;;;;;;;14.68;12.80;;;;;;;25.08;60.53;99310.75;4349876;32;20169;-94
2021/07/19 12:14:08;;;;;;;15.43;12.95;;;;;;;25.14;60.52;99308.47;4337095;32;20096;-94
2021/07/19 12:16:40;;;;;;;15.02;12.25;;;;;;;25.27;60.54;99312.38;4325854;32;20169;-95
2021/07/19 12:19:06;;;;;;;15.68;12.73;;;;;;;25.57;60.55;99310.31;4337902;32;20106;-95
2021/07/19 12:21:45;;;;;;;15.25;11.82;;;;;;;25.53;60.55;99300.94;4358988;32;20186;-96
2021/07/19 12:24:12;;;;;;;16.70;12.53;;;;;;;25.85;60.56;99301.22;4337791;32;20185;-95
2021/07/19 12:27:04;;;;;;;14.32;12.18;;;;;;;25.89;60.56;99291.91;4337683;32;20101;-95
2021/07/19 12:29:34;;;;;;;15.88;12.20;;;;;;;26.23;60.58;99296.41;4360997;32;20123;-94
2021/07/19 12:32:01;;;;;;;12.30;11.00;;;;;;;26.36;60.59;99296.84;4337872;32;20107;-95
2021/07/19 12:34:31;;;;;;;19.08;13.85;;;;;;;26.53;60.59;99290.56;4362252;32;20488;-94
2021/07/19 12:36:57;;;;;;;;;;;;;;;26.46;60.59;99286.84;4338456;32;20110;-95
2021/07/19 12:39:31;;;;;;;17.52;12.00;;;;;;;26.67;60.61;99290.91;4362290;32;19978;-94
2021/07/19 12:41:57;;;;;;;17.37;13.07;;;;;;;26.65;60.61;99292.91;4338564;32;20134;-95
2021/07/19 12:44:30;;;;;;;19.67;13.25;;;;;;;26.82;60.62;99276.78;4337637;32;20152;-96
2021/07/19 12:46:55;;;;;;;21.62;14.25;;;;;;;26.93;60.61;99276.44;4362260;32;20156;-95
2021/07/19 12:49:31;;;;;;;15.60;13.13;;;;;;;26.92;60.61;99288.12;4350325;32;20465;-95
2021/07/19 12:52:04;;;;;;;15.23;11.90;;;;;;;27.07;60.62;99287.53;4338277;32;20149;-96
2021/07/19 12:54:30;;;;;;;13.75;12.05;;;;;;;26.95;60.61;99281.62;4338314;32;20833;-95
2021/07/19 12:56:56;;;;;;;16.48;12.77;;;;;;;27.03;60.62;99278.19;4350567;32;20221;-96
2021/07/19 12:59:21;;;;;;;18.37;12.18;;;;;;;27.00;60.62;99275.84;4350237;32;20167;-96
2021/07/19 13:01:48;;;;;;;16.25;13.25;;;;;;;26.89;60.62;99274.28;4349483;32;20129;-96